SPTN35 YSHW-YBOK
Flight info
| Callsign | SPTN35 |
|---|---|
| Flight time | N/A |
| Altitude | 7000 |
| Route | TWRN PSP WSFR GGO TW IVL URAR MTY OK |
| Aircraft | H60/M-SDFGRY/LB1 |
Departure
| Time | 2026-04-17 01:11 |
|---|---|
| Airport | Holsworthy (Military) Airport (YSHW) |
Arrival
| Time | N/A |
|---|---|
| Airport | Oakey Army Aviation Centre (YBOK) |
| Time | Latitude | Longitude | Altitude | Speed | Heading |
|---|---|---|---|---|---|
| 2026-04-17 01:00 | -33.99482 | 150.95267 | 247 ft | 0 kts | 303° |
| 2026-04-17 01:10 | -33.99482 | 150.95266 | 252 ft | 1 kts | 303° |
| 2026-04-17 01:10 | -33.99479 | 150.95229 | 249 ft | 8 kts | 212° |
| 2026-04-17 01:10 | -33.99530 | 150.95190 | 250 ft | 8 kts | 214° |
| 2026-04-17 01:11 | -33.99507 | 150.95111 | 311 ft | 28 kts | 304° |
| 2026-04-17 01:11 | -33.99266 | 150.94662 | 702 ft | 98 kts | 306° |
| 2026-04-17 01:11 | -33.98633 | 150.94168 | 1105 ft | 125 kts | 353° |
| 2026-04-17 01:11 | -33.97819 | 150.94622 | 1179 ft | 138 kts | 33° |
| 2026-04-17 01:12 | -33.97013 | 150.94512 | 1276 ft | 139 kts | 304° |
| 2026-04-17 01:12 | -33.96666 | 150.93453 | 1784 ft | 134 kts | 294° |
| 2026-04-17 01:12 | -33.96205 | 150.92418 | 1964 ft | 147 kts | 300° |
| 2026-04-17 01:12 | -33.95669 | 150.91333 | 1929 ft | 154 kts | 302° |
| 2026-04-17 01:13 | -33.95084 | 150.90245 | 1923 ft | 151 kts | 303° |
| 2026-04-17 01:13 | -33.94500 | 150.89224 | 1934 ft | 150 kts | 304° |
| 2026-04-17 01:13 | -33.93665 | 150.88452 | 1899 ft | 162 kts | 349° |
| 2026-04-17 01:13 | -33.92549 | 150.88699 | 2043 ft | 163 kts | 13° |
| 2026-04-17 01:14 | -33.91392 | 150.89069 | 1926 ft | 182 kts | 13° |
| 2026-04-17 01:14 | -33.90193 | 150.89477 | 1842 ft | 178 kts | 13° |
| 2026-04-17 01:14 | -33.89015 | 150.89889 | 1888 ft | 177 kts | 13° |
| 2026-04-17 01:14 | -33.87820 | 150.90287 | 1904 ft | 178 kts | 13° |
| 2026-04-17 01:15 | -33.86636 | 150.90659 | 1912 ft | 177 kts | 7° |
| 2026-04-17 01:15 | -33.85430 | 150.90989 | 1920 ft | 177 kts | 8° |
| 2026-04-17 01:15 | -33.84234 | 150.91332 | 1916 ft | 179 kts | 9° |
| 2026-04-17 01:15 | -33.83050 | 150.91742 | 1919 ft | 178 kts | 14° |
| 2026-04-17 01:16 | -33.81856 | 150.92159 | 1921 ft | 178 kts | 13° |
| 2026-04-17 01:16 | -33.80671 | 150.92448 | 1897 ft | 178 kts | 358° |
| 2026-04-17 01:16 | -33.79469 | 150.92623 | 1911 ft | 178 kts | 7° |
| 2026-04-17 01:16 | -33.78277 | 150.92854 | 1914 ft | 178 kts | 7° |
| 2026-04-17 01:17 | -33.77072 | 150.93073 | 1919 ft | 179 kts | 6° |
| 2026-04-17 01:17 | -33.75841 | 150.93248 | 1922 ft | 177 kts | 4° |
| 2026-04-17 01:17 | -33.74614 | 150.93409 | 1937 ft | 175 kts | 4° |
| 2026-04-17 01:17 | -33.73416 | 150.93569 | 2162 ft | 173 kts | 4° |
| 2026-04-17 01:18 | -33.72179 | 150.93734 | 2298 ft | 179 kts | 4° |
| 2026-04-17 01:18 | -33.70953 | 150.93998 | 2522 ft | 179 kts | 8° |
| 2026-04-17 01:18 | -33.69728 | 150.94256 | 2747 ft | 176 kts | 6° |
| 2026-04-17 01:18 | -33.68569 | 150.94525 | 3253 ft | 164 kts | 7° |
| 2026-04-17 01:19 | -33.67466 | 150.94659 | 3793 ft | 156 kts | 356° |
| 2026-04-17 01:19 | -33.66366 | 150.94877 | 4137 ft | 166 kts | 4° |
| 2026-04-17 01:19 | -33.65221 | 150.95133 | 4477 ft | 170 kts | 5° |
| 2026-04-17 01:19 | -33.64041 | 150.95418 | 4746 ft | 175 kts | 5° |
| 2026-04-17 01:20 | -33.62837 | 150.95674 | 4951 ft | 176 kts | 3° |
| 2026-04-17 01:20 | -33.61602 | 150.95950 | 4940 ft | 187 kts | 5° |
| 2026-04-17 01:20 | -33.60334 | 150.96225 | 5044 ft | 186 kts | 4° |
| 2026-04-17 01:20 | -33.59055 | 150.96511 | 4932 ft | 187 kts | 5° |
| 2026-04-17 01:21 | -33.57782 | 150.96766 | 4844 ft | 184 kts | 5° |
| 2026-04-17 01:21 | -33.56520 | 150.96976 | 4506 ft | 184 kts | 4° |
| 2026-04-17 01:21 | -33.55260 | 150.97187 | 4333 ft | 186 kts | 4° |
| 2026-04-17 01:21 | -33.53993 | 150.97392 | 4302 ft | 181 kts | 4° |
| 2026-04-17 01:22 | -33.52723 | 150.97568 | 4282 ft | 185 kts | 2° |
| 2026-04-17 01:22 | -33.51483 | 150.97744 | 4274 ft | 182 kts | 2° |
| 2026-04-17 01:22 | -33.50222 | 150.97909 | 4289 ft | 182 kts | 2° |
| 2026-04-17 01:22 | -33.48964 | 150.98068 | 4316 ft | 181 kts | 2° |
| 2026-04-17 01:23 | -33.47778 | 150.98236 | 4610 ft | 167 kts | 2° |
| 2026-04-17 01:23 | -33.46638 | 150.98442 | 4899 ft | 162 kts | 4° |
| 2026-04-17 01:23 | -33.45488 | 150.98638 | 4991 ft | 175 kts | 1° |
| 2026-04-17 01:23 | -33.44322 | 150.98759 | 5203 ft | 166 kts | 357° |
| 2026-04-17 01:24 | -33.43116 | 150.98814 | 5153 ft | 183 kts | 355° |
| 2026-04-17 01:24 | -33.41818 | 150.98816 | 4917 ft | 185 kts | 354° |
| 2026-04-17 01:24 | -33.40535 | 150.98803 | 4754 ft | 182 kts | 354° |
| 2026-04-17 01:24 | -33.39256 | 150.98781 | 4689 ft | 185 kts | 354° |
| 2026-04-17 01:25 | -33.38003 | 150.98786 | 4731 ft | 167 kts | 359° |
| 2026-04-17 01:25 | -33.36974 | 150.98881 | 5296 ft | 150 kts | 354° |
| 2026-04-17 01:25 | -33.35888 | 150.98885 | 5038 ft | 161 kts | 354° |
| 2026-04-17 01:25 | -33.34702 | 150.98923 | 5019 ft | 177 kts | 359° |
| 2026-04-17 01:26 | -33.33461 | 150.98938 | 5034 ft | 177 kts | 355° |
| 2026-04-17 01:26 | -33.32215 | 150.98946 | 5151 ft | 178 kts | 355° |
| 2026-04-17 01:26 | -33.30971 | 150.98954 | 5119 ft | 181 kts | 355° |
| 2026-04-17 01:26 | -33.29705 | 150.98951 | 4886 ft | 177 kts | 355° |
| 2026-04-17 01:27 | -33.28468 | 150.98943 | 4663 ft | 180 kts | 355° |
| 2026-04-17 01:27 | -33.27224 | 150.98938 | 4456 ft | 178 kts | 355° |
| 2026-04-17 01:27 | -33.25992 | 150.98926 | 4469 ft | 176 kts | 355° |
| 2026-04-17 01:27 | -33.24791 | 150.98908 | 4585 ft | 174 kts | 355° |
| 2026-04-17 01:28 | -33.23564 | 150.98898 | 4724 ft | 178 kts | 355° |
| 2026-04-17 01:28 | -33.22335 | 150.98896 | 4850 ft | 176 kts | 355° |
| 2026-04-17 01:28 | -33.21103 | 150.98858 | 4924 ft | 177 kts | 350° |
| 2026-04-17 01:28 | -33.19875 | 150.98787 | 4943 ft | 177 kts | 355° |
| 2026-04-17 01:29 | -33.18639 | 150.98791 | 4939 ft | 177 kts | 355° |
| 2026-04-17 01:29 | -33.16178 | 150.98804 | 4919 ft | 177 kts | 355° |
| 2026-04-17 01:29 | -33.14942 | 150.98806 | 4932 ft | 179 kts | 355° |
| 2026-04-17 01:30 | -33.13721 | 150.98811 | 4903 ft | 177 kts | 355° |
| 2026-04-17 01:30 | -33.12492 | 150.98828 | 4871 ft | 176 kts | 356° |
| 2026-04-17 01:30 | -33.11264 | 150.98778 | 4818 ft | 178 kts | 350° |
| 2026-04-17 01:30 | -33.10024 | 150.98684 | 4722 ft | 173 kts | 353° |
| 2026-04-17 01:31 | -33.08852 | 150.98708 | 4925 ft | 173 kts | 357° |
| 2026-04-17 01:31 | -33.07633 | 150.98702 | 4838 ft | 175 kts | 352° |
| 2026-04-17 01:31 | -33.06423 | 150.98651 | 4911 ft | 173 kts | 352° |
| 2026-04-17 01:31 | -33.05218 | 150.98577 | 4995 ft | 173 kts | 352° |
| 2026-04-17 01:32 | -33.04003 | 150.98506 | 5015 ft | 178 kts | 352° |
| 2026-04-17 01:32 | -33.02783 | 150.98427 | 5037 ft | 176 kts | 352° |
| 2026-04-17 01:32 | -33.01576 | 150.98353 | 5065 ft | 174 kts | 352° |
| 2026-04-17 01:32 | -33.00359 | 150.98289 | 5077 ft | 175 kts | 352° |
| 2026-04-17 01:33 | -32.99140 | 150.98221 | 5081 ft | 175 kts | 352° |
| 2026-04-17 01:33 | -32.97925 | 150.98166 | 5091 ft | 175 kts | 352° |
| 2026-04-17 01:33 | -32.96722 | 150.98093 | 5089 ft | 175 kts | 352° |
| 2026-04-17 01:33 | -32.95494 | 150.98025 | 5067 ft | 175 kts | 352° |
| 2026-04-17 01:34 | -32.94278 | 150.97959 | 5041 ft | 175 kts | 352° |
| 2026-04-17 01:34 | -32.93078 | 150.97896 | 5008 ft | 175 kts | 352° |
| 2026-04-17 01:34 | -32.91864 | 150.97816 | 4963 ft | 175 kts | 352° |
| 2026-04-17 01:34 | -32.90659 | 150.97753 | 4950 ft | 175 kts | 352° |
| 2026-04-17 01:35 | -32.89429 | 150.97678 | 4921 ft | 179 kts | 352° |
| 2026-04-17 01:35 | -32.88212 | 150.97609 | 4900 ft | 174 kts | 352° |
| 2026-04-17 01:35 | -32.86981 | 150.97544 | 4882 ft | 176 kts | 352° |
| 2026-04-17 01:35 | -32.85757 | 150.97468 | 4876 ft | 174 kts | 352° |
| 2026-04-17 01:36 | -32.84536 | 150.97376 | 4875 ft | 176 kts | 352° |
| 2026-04-17 01:36 | -32.83315 | 150.97295 | 4896 ft | 176 kts | 352° |
| 2026-04-17 01:36 | -32.82120 | 150.97211 | 4972 ft | 176 kts | 352° |
| 2026-04-17 01:36 | -32.80919 | 150.97108 | 5021 ft | 161 kts | 352° |
| 2026-04-17 01:37 | -32.79832 | 150.97005 | 5030 ft | 169 kts | 352° |
| 2026-04-17 01:37 | -32.78624 | 150.96933 | 5027 ft | 173 kts | 352° |
| 2026-04-17 01:37 | -32.77398 | 150.96847 | 5021 ft | 176 kts | 352° |
| 2026-04-17 01:37 | -32.76191 | 150.96763 | 5043 ft | 173 kts | 352° |
| 2026-04-17 01:38 | -32.74965 | 150.96687 | 5053 ft | 175 kts | 352° |
| 2026-04-17 01:38 | -32.73754 | 150.96609 | 5077 ft | 179 kts | 352° |
| 2026-04-17 01:38 | -32.72876 | 150.96550 | 5070 ft | 177 kts | 352° |
| 2026-04-17 01:38 | -32.72004 | 150.96505 | 5059 ft | 177 kts | 352° |
| 2026-04-17 01:39 | -32.70773 | 150.96442 | 5044 ft | 178 kts | 352° |
| 2026-04-17 01:39 | -32.69544 | 150.96367 | 5065 ft | 174 kts | 352° |
| 2026-04-17 01:39 | -32.68319 | 150.96295 | 5023 ft | 178 kts | 352° |
| 2026-04-17 01:39 | -32.67095 | 150.96258 | 5002 ft | 176 kts | 354° |
| 2026-04-17 01:40 | -32.65878 | 150.96234 | 4954 ft | 169 kts | 355° |
| 2026-04-17 01:40 | -32.64671 | 150.96237 | 4909 ft | 173 kts | 355° |
| 2026-04-17 01:40 | -32.63469 | 150.96252 | 4934 ft | 173 kts | 355° |
| 2026-04-17 01:40 | -32.62269 | 150.96300 | 4976 ft | 173 kts | 355° |
| 2026-04-17 01:41 | -32.61071 | 150.96350 | 5005 ft | 172 kts | 355° |
| 2026-04-17 01:41 | -32.59886 | 150.96391 | 5022 ft | 173 kts | 355° |
| 2026-04-17 01:41 | -32.58673 | 150.96447 | 5035 ft | 176 kts | 355° |
| 2026-04-17 01:41 | -32.57452 | 150.96449 | 5042 ft | 172 kts | 353° |
| 2026-04-17 01:42 | -32.56248 | 150.96430 | 5025 ft | 171 kts | 353° |
| 2026-04-17 01:42 | -32.55046 | 150.96410 | 5045 ft | 173 kts | 353° |
| 2026-04-17 01:42 | -32.53842 | 150.96390 | 5056 ft | 173 kts | 353° |
| 2026-04-17 01:42 | -32.52649 | 150.96354 | 5069 ft | 170 kts | 353° |
| 2026-04-17 01:43 | -32.51466 | 150.96319 | 5060 ft | 174 kts | 353° |
| 2026-04-17 01:43 | -32.50262 | 150.96288 | 5041 ft | 172 kts | 353° |
| 2026-04-17 01:43 | -32.49072 | 150.96261 | 5018 ft | 172 kts | 353° |
| 2026-04-17 01:43 | -32.47870 | 150.96246 | 5027 ft | 173 kts | 353° |
| 2026-04-17 01:44 | -32.46668 | 150.96222 | 5050 ft | 174 kts | 353° |
| 2026-04-17 01:44 | -32.45461 | 150.96218 | 5056 ft | 173 kts | 353° |
| 2026-04-17 01:44 | -32.44254 | 150.96191 | 5058 ft | 175 kts | 353° |
| 2026-04-17 01:44 | -32.43045 | 150.96170 | 5074 ft | 173 kts | 353° |
| 2026-04-17 01:45 | -32.41862 | 150.96151 | 5085 ft | 173 kts | 353° |
| 2026-04-17 01:45 | -32.40662 | 150.96135 | 5100 ft | 172 kts | 353° |
| 2026-04-17 01:45 | -32.39463 | 150.96118 | 5098 ft | 173 kts | 353° |
| 2026-04-17 01:45 | -32.38262 | 150.96093 | 5069 ft | 172 kts | 349° |
| 2026-04-17 01:46 | -32.37061 | 150.96034 | 5017 ft | 176 kts | 350° |
| 2026-04-17 01:46 | -32.35826 | 150.95881 | 4719 ft | 177 kts | 345° |
| 2026-04-17 01:46 | -32.34595 | 150.95681 | 4701 ft | 177 kts | 346° |
| 2026-04-17 01:46 | -32.33390 | 150.95642 | 4821 ft | 175 kts | 355° |
| 2026-04-17 01:47 | -32.32129 | 150.95682 | 4977 ft | 182 kts | 355° |
| 2026-04-17 01:47 | -32.30878 | 150.95695 | 5072 ft | 184 kts | 354° |
| 2026-04-17 01:47 | -32.29614 | 150.95707 | 5124 ft | 184 kts | 353° |
| 2026-04-17 01:47 | -32.28347 | 150.95707 | 5144 ft | 185 kts | 353° |
| 2026-04-17 01:48 | -32.27070 | 150.95692 | 5141 ft | 182 kts | 353° |
| 2026-04-17 01:48 | -32.25806 | 150.95680 | 5141 ft | 181 kts | 353° |
| 2026-04-17 01:48 | -32.24535 | 150.95665 | 5159 ft | 184 kts | 353° |
| 2026-04-17 01:48 | -32.23267 | 150.95645 | 5165 ft | 184 kts | 353° |
| 2026-04-17 01:49 | -32.22014 | 150.95622 | 5166 ft | 183 kts | 353° |
| 2026-04-17 01:49 | -32.20751 | 150.95590 | 5185 ft | 181 kts | 353° |
| 2026-04-17 01:49 | -32.19484 | 150.95557 | 5139 ft | 184 kts | 353° |
| 2026-04-17 01:49 | -32.18215 | 150.95525 | 5068 ft | 180 kts | 353° |
| 2026-04-17 01:50 | -32.16951 | 150.95477 | 5000 ft | 182 kts | 353° |
| 2026-04-17 01:50 | -32.15696 | 150.95413 | 4967 ft | 181 kts | 353° |
| 2026-04-17 01:50 | -32.14435 | 150.95331 | 4955 ft | 183 kts | 351° |
| 2026-04-17 01:50 | -32.13175 | 150.95250 | 4957 ft | 183 kts | 351° |
| 2026-04-17 01:51 | -32.11920 | 150.95157 | 4941 ft | 181 kts | 351° |
| 2026-04-17 01:51 | -32.10691 | 150.95095 | 4930 ft | 178 kts | 351° |
| 2026-04-17 01:51 | -32.09438 | 150.95011 | 4924 ft | 180 kts | 351° |
| 2026-04-17 01:51 | -32.08176 | 150.94933 | 4917 ft | 182 kts | 351° |
| 2026-04-17 01:52 | -32.06911 | 150.94858 | 4908 ft | 180 kts | 351° |
| 2026-04-17 01:52 | -32.05645 | 150.94778 | 4895 ft | 183 kts | 351° |
| 2026-04-17 01:52 | -32.04384 | 150.94701 | 4884 ft | 181 kts | 351° |
| 2026-04-17 01:52 | -32.03118 | 150.94623 | 4879 ft | 182 kts | 351° |
| 2026-04-17 01:53 | -32.01860 | 150.94537 | 4874 ft | 180 kts | 351° |
| 2026-04-17 01:53 | -32.00598 | 150.94465 | 4871 ft | 179 kts | 351° |
| 2026-04-17 01:53 | -31.99345 | 150.94383 | 4862 ft | 186 kts | 351° |
| 2026-04-17 01:53 | -31.98085 | 150.94300 | 4891 ft | 182 kts | 351° |
| 2026-04-17 01:54 | -31.96813 | 150.94223 | 4916 ft | 185 kts | 351° |
| 2026-04-17 01:54 | -31.95528 | 150.94128 | 4935 ft | 187 kts | 351° |
| 2026-04-17 01:54 | -31.94259 | 150.94028 | 4945 ft | 179 kts | 351° |
| 2026-04-17 01:54 | -31.93003 | 150.93938 | 4959 ft | 177 kts | 351° |
| 2026-04-17 01:55 | -31.91759 | 150.93806 | 4999 ft | 185 kts | 351° |
| 2026-04-17 01:55 | -31.90503 | 150.93712 | 5028 ft | 176 kts | 351° |
| 2026-04-17 01:55 | -31.89683 | 150.93631 | 5046 ft | 180 kts | 351° |
| 2026-04-17 01:55 | -31.87969 | 150.93479 | 5053 ft | 180 kts | 351° |
| 2026-04-17 01:56 | -31.86721 | 150.93391 | 5034 ft | 184 kts | 351° |
| 2026-04-17 01:56 | -31.85448 | 150.93298 | 4952 ft | 181 kts | 351° |
| 2026-04-17 01:56 | -31.84189 | 150.93204 | 4900 ft | 180 kts | 351° |
| 2026-04-17 01:56 | -31.83360 | 150.93136 | 4900 ft | 181 kts | 351° |
| 2026-04-17 01:57 | -31.81666 | 150.92991 | 4907 ft | 181 kts | 351° |
| 2026-04-17 01:57 | -31.80838 | 150.92928 | 4909 ft | 179 kts | 351° |
| 2026-04-17 01:57 | -31.79564 | 150.92831 | 4938 ft | 185 kts | 351° |
| 2026-04-17 01:57 | -31.77870 | 150.92701 | 4956 ft | 181 kts | 351° |
| 2026-04-17 01:58 | -31.76643 | 150.92649 | 4986 ft | 181 kts | 356° |
| 2026-04-17 01:58 | -31.75782 | 150.92654 | 5006 ft | 182 kts | 356° |
| 2026-04-17 01:58 | -31.74513 | 150.92660 | 5046 ft | 186 kts | 356° |
| 2026-04-17 01:58 | -31.73260 | 150.92690 | 5073 ft | 177 kts | 356° |
| 2026-04-17 01:59 | -31.72007 | 150.92691 | 5153 ft | 183 kts | 356° |
| 2026-04-17 01:59 | -31.70736 | 150.92715 | 5195 ft | 183 kts | 356° |
| 2026-04-17 01:59 | -31.69474 | 150.92742 | 5200 ft | 181 kts | 356° |
| 2026-04-17 01:59 | -31.68213 | 150.92779 | 5194 ft | 183 kts | 356° |
| 2026-04-17 02:00 | -31.66960 | 150.92823 | 5191 ft | 179 kts | 356° |
| 2026-04-17 02:00 | -31.65694 | 150.92824 | 5172 ft | 182 kts | 355° |
| 2026-04-17 02:00 | -31.64428 | 150.92862 | 5126 ft | 181 kts | 356° |
| 2026-04-17 02:00 | -31.62731 | 150.92859 | 5057 ft | 182 kts | 352° |
| 2026-04-17 02:01 | -31.61909 | 150.92826 | 5059 ft | 180 kts | 353° |
| 2026-04-17 02:01 | -31.60649 | 150.92785 | 5095 ft | 183 kts | 353° |
| 2026-04-17 02:01 | -31.59386 | 150.92740 | 5114 ft | 181 kts | 353° |
| 2026-04-17 02:01 | -31.58127 | 150.92697 | 5145 ft | 179 kts | 353° |
| 2026-04-17 02:02 | -31.56867 | 150.92662 | 5160 ft | 182 kts | 353° |
| 2026-04-17 02:02 | -31.55606 | 150.92607 | 5185 ft | 179 kts | 353° |
| 2026-04-17 02:02 | -31.53940 | 150.92554 | 5222 ft | 181 kts | 353° |
| 2026-04-17 02:02 | -31.53091 | 150.92518 | 5233 ft | 180 kts | 353° |
| 2026-04-17 02:03 | -31.51837 | 150.92474 | 5232 ft | 181 kts | 352° |
| 2026-04-17 02:03 | -31.50600 | 150.92438 | 5231 ft | 176 kts | 353° |
| 2026-04-17 02:03 | -31.49359 | 150.92389 | 5268 ft | 184 kts | 353° |
| 2026-04-17 02:03 | -31.48100 | 150.92337 | 5264 ft | 180 kts | 353° |
| 2026-04-17 02:04 | -31.46843 | 150.92284 | 5236 ft | 179 kts | 353° |
| 2026-04-17 02:04 | -31.45588 | 150.92231 | 5166 ft | 184 kts | 353° |
| 2026-04-17 02:04 | -31.44319 | 150.92166 | 5135 ft | 181 kts | 353° |
| 2026-04-17 02:04 | -31.43060 | 150.92107 | 5092 ft | 185 kts | 353° |
| 2026-04-17 02:05 | -31.41787 | 150.92036 | 5085 ft | 181 kts | 353° |
| 2026-04-17 02:05 | -31.40529 | 150.91979 | 5094 ft | 182 kts | 353° |
| 2026-04-17 02:05 | -31.39265 | 150.91907 | 5105 ft | 184 kts | 353° |
| 2026-04-17 02:05 | -31.37999 | 150.91863 | 5136 ft | 184 kts | 353° |
| 2026-04-17 02:06 | -31.36723 | 150.91803 | 5133 ft | 184 kts | 353° |
| 2026-04-17 02:06 | -31.35453 | 150.91750 | 5144 ft | 183 kts | 353° |
| 2026-04-17 02:06 | -31.34183 | 150.91697 | 5166 ft | 184 kts | 353° |
| 2026-04-17 02:06 | -31.32903 | 150.91638 | 5191 ft | 183 kts | 353° |
| 2026-04-17 02:07 | -31.31631 | 150.91593 | 5216 ft | 186 kts | 353° |
| 2026-04-17 02:07 | -31.30347 | 150.91540 | 5227 ft | 182 kts | 352° |
| 2026-04-17 02:07 | -31.29066 | 150.91486 | 5229 ft | 186 kts | 353° |
| 2026-04-17 02:07 | -31.27810 | 150.91444 | 5243 ft | 183 kts | 353° |
| 2026-04-17 02:08 | -31.26546 | 150.91390 | 5279 ft | 181 kts | 353° |
| 2026-04-17 02:08 | -31.25272 | 150.91331 | 5309 ft | 183 kts | 353° |
| 2026-04-17 02:08 | -31.23996 | 150.91261 | 5347 ft | 185 kts | 353° |
| 2026-04-17 02:08 | -31.22718 | 150.91199 | 5371 ft | 185 kts | 353° |
| 2026-04-17 02:09 | -31.21437 | 150.91136 | 5371 ft | 184 kts | 352° |
| 2026-04-17 02:09 | -31.20252 | 150.90769 | 5271 ft | 179 kts | 333° |
| 2026-04-17 02:09 | -31.19108 | 150.90229 | 5222 ft | 176 kts | 333° |
| 2026-04-17 02:09 | -31.17972 | 150.89708 | 5201 ft | 171 kts | 333° |
| 2026-04-17 02:10 | -31.16885 | 150.89232 | 4441 ft | 173 kts | 335° |
| 2026-04-17 02:10 | -31.16098 | 150.88890 | 3859 ft | 179 kts | 335° |
| 2026-04-17 02:10 | -31.14932 | 150.88302 | 2935 ft | 185 kts | 337° |
| 2026-04-17 02:10 | -31.13724 | 150.87800 | 2518 ft | 181 kts | 345° |
| 2026-04-17 02:11 | -31.12563 | 150.87434 | 2683 ft | 164 kts | 340° |
| 2026-04-17 02:11 | -31.11521 | 150.87006 | 2219 ft | 154 kts | 333° |
| 2026-04-17 02:11 | -31.10669 | 150.86400 | 2026 ft | 139 kts | 322° |
| 2026-04-17 02:11 | -31.09972 | 150.85652 | 1839 ft | 136 kts | 313° |
| 2026-04-17 02:12 | -31.09384 | 150.84858 | 1597 ft | 101 kts | 312° |
| 2026-04-17 02:12 | -31.09040 | 150.84364 | 1427 ft | 58 kts | 325° |
| 2026-04-17 02:12 | -31.08713 | 150.84351 | 1413 ft | 50 kts | 31° |
| 2026-04-17 02:12 | -31.08492 | 150.84541 | 1407 ft | 28 kts | 16° |
| 2026-04-17 02:13 | -31.08341 | 150.84651 | 1415 ft | 15 kts | 24° |
| 2026-04-17 02:13 | -31.08326 | 150.84823 | 1359 ft | 16 kts | 172° |
| 2026-04-17 02:13 | -31.08332 | 150.84819 | 1341 ft | 0 kts | 243° |
| 2026-04-17 02:13 | -31.08305 | 150.84857 | 1372 ft | 16 kts | 135° |
| 2026-04-17 02:14 | -31.08327 | 150.84828 | 1350 ft | 3 kts | 277° |
| 2026-04-17 02:14 | -31.08326 | 150.84822 | 1341 ft | 0 kts | 283° |